Airfield :
LOGIN :

Register | Disclaimer

   EN    FR    IT 

 










Legend :    VFR   Marginal VFR   IFR   Intensive IFR   Very Intensive IFR
Visi :
Ceiling :
>= 8 km
>= 3000ft
5 to 8 km
1000 to 3000 ft
1500m to 5 km
500 to 1000 ft
800 to 1500m
200 to 500 ft
< 800m
< 200 ft
Symbols :   Thunderstorms  Fog  Heavy snow  Heavy precipitations  Wind > 20 kt
SIGMETs :     Misc.  Thunderstorms  Icing  Turbulence  Mountain Waves  Volcanic Ashes







- Airport Elevation : 37 ft
- IATA code : HLY


EGOV - RAF Valley

CURRENT METAR :
  • 170650Z 23026KT 9999 FEW022 12/08 Q1013 BLU NOSIG

EXPIRED METARs :
  • 170550Z AUTO 23029KT 9999 BKN023/// 12/07 Q1013
  • 170450Z AUTO 23029KT 9999 BKN024/// BKN031/// 12/08 Q1012

TAF TAF EGOV
Valid from the 17 at 06:00 until the 17 at 15:00 UTC


170531Z 1706/1715 23025G35KT 9999 FEW022
PROB30
TEMPO 1706/1708 SCT022
BECMG 1708/1711 24015G25KT
BECMG 1713/1715 24013KT
No reported NOTAMs for that airfield.
2 SIGMETs reported for the London FIR (EGTT) :
 
Severe turbulence
EGTT SIGMET 04 VALID 170500/170900 EGRR
EGTT LONDON FIR SEV TURB FCST N OF LINE N5230 W00530 - N5230 E00249 SFC/FL060 MOV N 15KT WKN=
Severe mountain waves
EGTT SIGMET 03 VALID 170500/170900 EGRR
EGTT LONDON FIR SEV MTW FCST WI N5220 W00530 - N5500 W00530 - N5500 E00115 - N5316 E00115 - N5124 W00259 - N5158 W00611 - N5220 W00530 FL030/200 MOV N 15KT WKN=



MET'MAP, your aeronautical weather chart ! - Copyright ORBIFLY December 2007 - Disclaimer

ORBIFLY MET'MAP TEAM :

Programming & Development : Alexandra Zaïnal
Concept & Development : Baudouin d'Aumeries
Co-Development & Prog : Marc-Olivier Méhu
Technical & hardware support : Manuel Goepfert

Contact : metmap@orbifly.com




SOURCES & CREDITS :

   NOAA